sensor_id;sensor_type;location;lat;lon;timestamp;temperature;humidity
15288;DHT22;7745;48.708;9.026;2023-08-06T00:00:40;15.80;99.90
15288;DHT22;7745;48.708;9.026;2023-08-06T00:03:07;15.70;99.90
15288;DHT22;7745;48.708;9.026;2023-08-06T00:05:34;15.70;99.90
15288;DHT22;7745;48.708;9.026;2023-08-06T00:08:01;15.60;99.90
15288;DHT22;7745;48.708;9.026;2023-08-06T00:10:27;15.60;99.90
15288;DHT22;7745;48.708;9.026;2023-08-06T00:12:54;15.70;99.90
15288;DHT22;7745;48.708;9.026;2023-08-06T00:15:22;15.60;99.90
15288;DHT22;7745;48.708;9.026;2023-08-06T00:17:50;15.50;99.90
15288;DHT22;7745;48.708;9.026;2023-08-06T00:20:17;15.60;99.90
15288;DHT22;7745;48.708;9.026;2023-08-06T00:22:43;15.50;99.90
15288;DHT22;7745;48.708;9.026;2023-08-06T00:25:10;15.50;99.90
15288;DHT22;7745;48.708;9.026;2023-08-06T00:27:37;15.50;99.90
15288;DHT22;7745;48.708;9.026;2023-08-06T00:30:04;15.50;99.90
15288;DHT22;7745;48.708;9.026;2023-08-06T00:32:31;15.40;99.90
15288;DHT22;7745;48.708;9.026;2023-08-06T00:34:59;15.50;99.90
15288;DHT22;7745;48.708;9.026;2023-08-06T00:37:26;15.40;99.90
15288;DHT22;7745;48.708;9.026;2023-08-06T00:39:53;15.50;99.90
15288;DHT22;7745;48.708;9.026;2023-08-06T00:42:19;15.50;99.90
15288;DHT22;7745;48.708;9.026;2023-08-06T00:44:48;15.50;99.90
15288;DHT22;7745;48.708;9.026;2023-08-06T00:47:15;15.50;99.90
15288;DHT22;7745;48.708;9.026;2023-08-06T00:49:42;15.50;99.90
15288;DHT22;7745;48.708;9.026;2023-08-06T00:52:10;15.40;99.90
15288;DHT22;7745;48.708;9.026;2023-08-06T00:54:38;15.40;99.90
15288;DHT22;7745;48.708;9.026;2023-08-06T00:57:07;15.30;99.90
15288;DHT22;7745;48.708;9.026;2023-08-06T00:59:34;15.30;99.90
15288;DHT22;7745;48.708;9.026;2023-08-06T01:02:01;15.30;99.90
15288;DHT22;7745;48.708;9.026;2023-08-06T01:04:28;15.40;99.90
15288;DHT22;7745;48.708;9.026;2023-08-06T01:07:02;15.30;99.90
15288;DHT22;7745;48.708;9.026;2023-08-06T01:09:38;15.50;99.90
15288;DHT22;7745;48.708;9.026;2023-08-06T01:12:18;15.20;99.90
15288;DHT22;7745;48.708;9.026;2023-08-06T01:14:52;15.20;99.90
15288;DHT22;7745;48.708;9.026;2023-08-06T01:17:20;15.20;99.90
15288;DHT22;7745;48.708;9.026;2023-08-06T01:19:47;15.20;99.90
15288;DHT22;7745;48.708;9.026;2023-08-06T01:22:15;15.20;99.90
15288;DHT22;7745;48.708;9.026;2023-08-06T01:24:44;15.20;99.90
15288;DHT22;7745;48.708;9.026;2023-08-06T01:27:20;15.30;99.90
15288;DHT22;7745;48.708;9.026;2023-08-06T01:29:53;15.20;99.90
15288;DHT22;7745;48.708;9.026;2023-08-06T01:32:21;15.20;99.90
15288;DHT22;7745;48.708;9.026;2023-08-06T01:34:49;15.20;99.90
15288;DHT22;7745;48.708;9.026;2023-08-06T01:37:18;15.20;99.90
15288;DHT22;7745;48.708;9.026;2023-08-06T01:39:45;15.10;99.90
15288;DHT22;7745;48.708;9.026;2023-08-06T01:42:12;15.20;99.90
15288;DHT22;7745;48.708;9.026;2023-08-06T01:44:39;15.00;99.90
15288;DHT22;7745;48.708;9.026;2023-08-06T01:47:05;15.00;99.90
15288;DHT22;7745;48.708;9.026;2023-08-06T01:49:32;14.90;99.90
15288;DHT22;7745;48.708;9.026;2023-08-06T01:51:59;14.90;99.90
15288;DHT22;7745;48.708;9.026;2023-08-06T01:54:27;14.90;99.90
15288;DHT22;7745;48.708;9.026;2023-08-06T01:56:54;14.90;99.90
15288;DHT22;7745;48.708;9.026;2023-08-06T01:59:21;14.80;99.90
15288;DHT22;7745;48.708;9.026;2023-08-06T02:01:48;14.80;99.90
15288;DHT22;7745;48.708;9.026;2023-08-06T02:04:14;14.80;99.90
15288;DHT22;7745;48.708;9.026;2023-08-06T02:06:41;14.80;99.90
15288;DHT22;7745;48.708;9.026;2023-08-06T02:09:08;14.70;99.90
15288;DHT22;7745;48.708;9.026;2023-08-06T02:11:36;14.80;99.90
15288;DHT22;7745;48.708;9.026;2023-08-06T02:14:03;14.70;99.90
15288;DHT22;7745;48.708;9.026;2023-08-06T02:16:29;14.70;99.90
15288;DHT22;7745;48.708;9.026;2023-08-06T02:18:56;14.70;99.90
15288;DHT22;7745;48.708;9.026;2023-08-06T02:21:23;14.70;99.90
15288;DHT22;7745;48.708;9.026;2023-08-06T02:23:49;14.60;99.90
15288;DHT22;7745;48.708;9.026;2023-08-06T02:26:16;14.60;99.90
15288;DHT22;7745;48.708;9.026;2023-08-06T02:28:45;14.60;99.90
15288;DHT22;7745;48.708;9.026;2023-08-06T02:31:11;14.50;99.90
15288;DHT22;7745;48.708;9.026;2023-08-06T02:33:38;14.50;99.90
15288;DHT22;7745;48.708;9.026;2023-08-06T02:36:05;14.50;99.90
15288;DHT22;7745;48.708;9.026;2023-08-06T02:38:32;14.50;99.90
15288;DHT22;7745;48.708;9.026;2023-08-06T02:40:59;14.50;99.90
15288;DHT22;7745;48.708;9.026;2023-08-06T02:43:28;14.50;99.90
15288;DHT22;7745;48.708;9.026;2023-08-06T02:45:58;14.50;99.90
15288;DHT22;7745;48.708;9.026;2023-08-06T02:48:25;14.50;99.90
15288;DHT22;7745;48.708;9.026;2023-08-06T02:50:51;14.50;99.90
15288;DHT22;7745;48.708;9.026;2023-08-06T02:53:18;14.40;99.90
15288;DHT22;7745;48.708;9.026;2023-08-06T02:55:46;14.60;99.90
15288;DHT22;7745;48.708;9.026;2023-08-06T02:58:13;14.40;99.90
15288;DHT22;7745;48.708;9.026;2023-08-06T03:00:40;14.50;99.90
15288;DHT22;7745;48.708;9.026;2023-08-06T03:03:09;14.50;99.90
15288;DHT22;7745;48.708;9.026;2023-08-06T03:05:36;14.50;99.90
15288;DHT22;7745;48.708;9.026;2023-08-06T03:08:03;14.50;99.90
15288;DHT22;7745;48.708;9.026;2023-08-06T03:10:29;14.50;99.90
15288;DHT22;7745;48.708;9.026;2023-08-06T03:12:56;14.50;99.90
15288;DHT22;7745;48.708;9.026;2023-08-06T03:15:23;14.60;99.90
15288;DHT22;7745;48.708;9.026;2023-08-06T03:17:50;14.60;99.90
15288;DHT22;7745;48.708;9.026;2023-08-06T03:20:18;14.60;99.90
15288;DHT22;7745;48.708;9.026;2023-08-06T03:22:45;14.60;99.90
15288;DHT22;7745;48.708;9.026;2023-08-06T03:25:11;14.60;99.90
15288;DHT22;7745;48.708;9.026;2023-08-06T03:27:38;14.60;99.90
15288;DHT22;7745;48.708;9.026;2023-08-06T03:30:06;14.60;99.90
15288;DHT22;7745;48.708;9.026;2023-08-06T03:32:33;14.60;99.90
15288;DHT22;7745;48.708;9.026;2023-08-06T03:35:00;14.60;99.90
15288;DHT22;7745;48.708;9.026;2023-08-06T03:37:28;14.60;99.90
15288;DHT22;7745;48.708;9.026;2023-08-06T03:39:55;14.70;99.90
15288;DHT22;7745;48.708;9.026;2023-08-06T03:42:21;14.60;99.90
15288;DHT22;7745;48.708;9.026;2023-08-06T03:44:48;14.70;99.90
15288;DHT22;7745;48.708;9.026;2023-08-06T03:47:15;14.70;99.90
15288;DHT22;7745;48.708;9.026;2023-08-06T03:49:42;14.70;99.90
15288;DHT22;7745;48.708;9.026;2023-08-06T03:52:09;14.80;99.90
15288;DHT22;7745;48.708;9.026;2023-08-06T03:54:37;14.80;99.90
15288;DHT22;7745;48.708;9.026;2023-08-06T03:57:05;14.80;99.90
15288;DHT22;7745;48.708;9.026;2023-08-06T03:59:31;14.80;99.90
15288;DHT22;7745;48.708;9.026;2023-08-06T04:01:58;14.80;99.90
15288;DHT22;7745;48.708;9.026;2023-08-06T04:04:25;14.80;99.90
15288;DHT22;7745;48.708;9.026;2023-08-06T04:06:52;14.80;99.90
15288;DHT22;7745;48.708;9.026;2023-08-06T04:09:18;14.80;99.90
15288;DHT22;7745;48.708;9.026;2023-08-06T04:11:47;15.10;99.90
15288;DHT22;7745;48.708;9.026;2023-08-06T04:14:13;15.00;99.90
15288;DHT22;7745;48.708;9.026;2023-08-06T04:16:40;14.80;99.90
15288;DHT22;7745;48.708;9.026;2023-08-06T04:19:07;14.70;99.90
15288;DHT22;7745;48.708;9.026;2023-08-06T04:21:34;15.00;99.90
15288;DHT22;7745;48.708;9.026;2023-08-06T04:24:00;14.70;99.90
15288;DHT22;7745;48.708;9.026;2023-08-06T04:26:27;14.70;99.90
15288;DHT22;7745;48.708;9.026;2023-08-06T04:28:55;14.60;99.90
15288;DHT22;7745;48.708;9.026;2023-08-06T04:31:22;14.60;99.90
15288;DHT22;7745;48.708;9.026;2023-08-06T04:33:49;14.60;99.90
15288;DHT22;7745;48.708;9.026;2023-08-06T04:36:16;14.60;99.90
15288;DHT22;7745;48.708;9.026;2023-08-06T04:38:43;14.60;99.90
15288;DHT22;7745;48.708;9.026;2023-08-06T04:41:12;14.60;99.90
15288;DHT22;7745;48.708;9.026;2023-08-06T04:43:39;14.60;99.90
15288;DHT22;7745;48.708;9.026;2023-08-06T04:46:07;14.60;99.90
15288;DHT22;7745;48.708;9.026;2023-08-06T04:48:34;14.60;99.90
15288;DHT22;7745;48.708;9.026;2023-08-06T04:51:01;14.60;99.90
15288;DHT22;7745;48.708;9.026;2023-08-06T04:53:28;14.60;99.90
15288;DHT22;7745;48.708;9.026;2023-08-06T04:55:54;14.60;99.90
15288;DHT22;7745;48.708;9.026;2023-08-06T04:58:21;14.60;99.90
15288;DHT22;7745;48.708;9.026;2023-08-06T05:00:48;14.60;99.90
15288;DHT22;7745;48.708;9.026;2023-08-06T05:03:16;14.60;99.90
15288;DHT22;7745;48.708;9.026;2023-08-06T05:05:43;14.60;99.90
15288;DHT22;7745;48.708;9.026;2023-08-06T05:08:14;14.60;99.90
15288;DHT22;7745;48.708;9.026;2023-08-06T05:10:43;14.80;99.90
15288;DHT22;7745;48.708;9.026;2023-08-06T05:13:10;14.60;99.90
15288;DHT22;7745;48.708;9.026;2023-08-06T05:15:37;14.50;99.90
15288;DHT22;7745;48.708;9.026;2023-08-06T05:18:05;14.50;99.90
15288;DHT22;7745;48.708;9.026;2023-08-06T05:20:36;14.60;99.90
15288;DHT22;7745;48.708;9.026;2023-08-06T05:23:03;14.70;99.90
15288;DHT22;7745;48.708;9.026;2023-08-06T05:25:29;14.90;99.90
15288;DHT22;7745;48.708;9.026;2023-08-06T05:27:57;15.20;99.90
15288;DHT22;7745;48.708;9.026;2023-08-06T05:30:23;15.30;99.90
15288;DHT22;7745;48.708;9.026;2023-08-06T05:32:50;15.40;99.90
15288;DHT22;7745;48.708;9.026;2023-08-06T05:35:17;15.40;99.90
15288;DHT22;7745;48.708;9.026;2023-08-06T05:37:45;15.30;99.90
15288;DHT22;7745;48.708;9.026;2023-08-06T05:40:12;15.30;99.90
15288;DHT22;7745;48.708;9.026;2023-08-06T05:42:39;15.30;99.90
15288;DHT22;7745;48.708;9.026;2023-08-06T05:45:07;15.30;99.90
15288;DHT22;7745;48.708;9.026;2023-08-06T05:47:34;15.20;99.90
15288;DHT22;7745;48.708;9.026;2023-08-06T05:50:01;15.10;99.90
15288;DHT22;7745;48.708;9.026;2023-08-06T05:52:27;15.10;99.90
15288;DHT22;7745;48.708;9.026;2023-08-06T05:54:55;15.10;99.90
15288;DHT22;7745;48.708;9.026;2023-08-06T05:57:22;15.10;99.90
15288;DHT22;7745;48.708;9.026;2023-08-06T05:59:49;15.00;99.90
15288;DHT22;7745;48.708;9.026;2023-08-06T06:02:16;15.00;99.90
15288;DHT22;7745;48.708;9.026;2023-08-06T06:04:44;15.00;99.90
15288;DHT22;7745;48.708;9.026;2023-08-06T06:07:10;15.00;99.90
15288;DHT22;7745;48.708;9.026;2023-08-06T06:09:37;15.00;99.90
15288;DHT22;7745;48.708;9.026;2023-08-06T06:12:06;15.00;99.90
15288;DHT22;7745;48.708;9.026;2023-08-06T06:14:33;15.10;99.90
15288;DHT22;7745;48.708;9.026;2023-08-06T06:17:00;15.10;99.90
15288;DHT22;7745;48.708;9.026;2023-08-06T06:19:27;15.30;99.90
15288;DHT22;7745;48.708;9.026;2023-08-06T06:21:54;15.10;99.90
15288;DHT22;7745;48.708;9.026;2023-08-06T06:24:23;15.00;99.90
15288;DHT22;7745;48.708;9.026;2023-08-06T06:26:50;15.00;99.90
15288;DHT22;7745;48.708;9.026;2023-08-06T06:29:18;15.00;99.90
15288;DHT22;7745;48.708;9.026;2023-08-06T06:31:44;15.00;99.90
15288;DHT22;7745;48.708;9.026;2023-08-06T06:34:11;15.00;99.90
15288;DHT22;7745;48.708;9.026;2023-08-06T06:36:38;15.00;99.90
15288;DHT22;7745;48.708;9.026;2023-08-06T06:39:05;15.00;99.90
15288;DHT22;7745;48.708;9.026;2023-08-06T06:41:31;15.00;99.90
15288;DHT22;7745;48.708;9.026;2023-08-06T06:43:58;15.10;99.90
15288;DHT22;7745;48.708;9.026;2023-08-06T06:46:26;15.10;99.90
15288;DHT22;7745;48.708;9.026;2023-08-06T06:48:53;15.20;99.90
15288;DHT22;7745;48.708;9.026;2023-08-06T06:51:20;15.10;99.90
15288;DHT22;7745;48.708;9.026;2023-08-06T06:53:46;15.00;99.90
15288;DHT22;7745;48.708;9.026;2023-08-06T06:56:13;14.90;99.90
15288;DHT22;7745;48.708;9.026;2023-08-06T06:58:40;14.90;99.90
15288;DHT22;7745;48.708;9.026;2023-08-06T07:01:08;14.80;99.90
15288;DHT22;7745;48.708;9.026;2023-08-06T07:03:38;14.80;99.90
15288;DHT22;7745;48.708;9.026;2023-08-06T07:06:05;14.80;99.90
15288;DHT22;7745;48.708;9.026;2023-08-06T07:08:32;14.80;99.90
15288;DHT22;7745;48.708;9.026;2023-08-06T07:11:02;14.80;99.90
15288;DHT22;7745;48.708;9.026;2023-08-06T07:13:29;14.90;99.90
15288;DHT22;7745;48.708;9.026;2023-08-06T07:15:56;14.80;99.90
15288;DHT22;7745;48.708;9.026;2023-08-06T07:18:23;14.70;99.90
15288;DHT22;7745;48.708;9.026;2023-08-06T07:20:52;14.70;99.90
15288;DHT22;7745;48.708;9.026;2023-08-06T07:23:20;14.80;99.90
15288;DHT22;7745;48.708;9.026;2023-08-06T07:25:48;14.60;99.90
15288;DHT22;7745;48.708;9.026;2023-08-06T07:28:15;14.60;99.90
15288;DHT22;7745;48.708;9.026;2023-08-06T07:30:43;14.60;99.90
15288;DHT22;7745;48.708;9.026;2023-08-06T07:33:11;14.60;99.90
15288;DHT22;7745;48.708;9.026;2023-08-06T07:35:38;14.60;99.90
15288;DHT22;7745;48.708;9.026;2023-08-06T07:38:06;14.60;99.90
15288;DHT22;7745;48.708;9.026;2023-08-06T07:40:35;14.60;99.90
15288;DHT22;7745;48.708;9.026;2023-08-06T07:43:02;14.70;99.90
15288;DHT22;7745;48.708;9.026;2023-08-06T07:45:32;14.80;99.90
15288;DHT22;7745;48.708;9.026;2023-08-06T07:48:00;14.70;99.90
15288;DHT22;7745;48.708;9.026;2023-08-06T07:50:27;14.70;99.90
15288;DHT22;7745;48.708;9.026;2023-08-06T07:52:54;14.80;99.90
15288;DHT22;7745;48.708;9.026;2023-08-06T07:55:22;14.90;99.90
15288;DHT22;7745;48.708;9.026;2023-08-06T07:57:49;15.00;99.90
15288;DHT22;7745;48.708;9.026;2023-08-06T08:00:16;15.10;99.90
15288;DHT22;7745;48.708;9.026;2023-08-06T08:02:43;15.10;99.90
15288;DHT22;7745;48.708;9.026;2023-08-06T08:05:11;15.10;99.90
15288;DHT22;7745;48.708;9.026;2023-08-06T08:07:38;15.20;99.90
15288;DHT22;7745;48.708;9.026;2023-08-06T08:10:06;15.20;99.90
15288;DHT22;7745;48.708;9.026;2023-08-06T08:12:34;15.20;99.90
15288;DHT22;7745;48.708;9.026;2023-08-06T08:15:01;15.20;99.90
15288;DHT22;7745;48.708;9.026;2023-08-06T08:17:28;15.30;99.90
15288;DHT22;7745;48.708;9.026;2023-08-06T08:19:55;15.30;99.90
15288;DHT22;7745;48.708;9.026;2023-08-06T08:22:22;15.30;99.90
15288;DHT22;7745;48.708;9.026;2023-08-06T08:24:49;15.20;99.90
15288;DHT22;7745;48.708;9.026;2023-08-06T08:27:15;15.20;99.90
15288;DHT22;7745;48.708;9.026;2023-08-06T08:29:44;15.20;99.90
15288;DHT22;7745;48.708;9.026;2023-08-06T08:32:10;15.20;99.90
15288;DHT22;7745;48.708;9.026;2023-08-06T08:34:37;15.10;99.90
15288;DHT22;7745;48.708;9.026;2023-08-06T08:37:04;15.20;99.90
15288;DHT22;7745;48.708;9.026;2023-08-06T08:39:31;15.20;99.90
15288;DHT22;7745;48.708;9.026;2023-08-06T08:41:58;15.20;99.90
15288;DHT22;7745;48.708;9.026;2023-08-06T08:44:27;15.30;99.90
15288;DHT22;7745;48.708;9.026;2023-08-06T08:46:56;15.20;99.90
15288;DHT22;7745;48.708;9.026;2023-08-06T08:49:24;15.30;99.90
15288;DHT22;7745;48.708;9.026;2023-08-06T08:51:53;15.10;99.90
15288;DHT22;7745;48.708;9.026;2023-08-06T08:54:23;15.10;99.90
15288;DHT22;7745;48.708;9.026;2023-08-06T08:56:50;15.10;99.90
15288;DHT22;7745;48.708;9.026;2023-08-06T08:59:17;15.20;99.90
15288;DHT22;7745;48.708;9.026;2023-08-06T09:01:46;15.30;99.90
15288;DHT22;7745;48.708;9.026;2023-08-06T09:04:18;15.30;99.90
15288;DHT22;7745;48.708;9.026;2023-08-06T09:06:47;15.50;99.90
15288;DHT22;7745;48.708;9.026;2023-08-06T09:09:22;15.50;99.90
15288;DHT22;7745;48.708;9.026;2023-08-06T09:11:51;15.60;99.90
15288;DHT22;7745;48.708;9.026;2023-08-06T09:14:19;15.70;99.90
15288;DHT22;7745;48.708;9.026;2023-08-06T09:16:45;15.90;99.90
15288;DHT22;7745;48.708;9.026;2023-08-06T09:19:13;16.20;99.90
15288;DHT22;7745;48.708;9.026;2023-08-06T09:21:45;16.10;99.90
15288;DHT22;7745;48.708;9.026;2023-08-06T09:24:14;16.20;99.90
15288;DHT22;7745;48.708;9.026;2023-08-06T09:26:42;16.20;99.90
15288;DHT22;7745;48.708;9.026;2023-08-06T09:29:11;16.20;99.90
15288;DHT22;7745;48.708;9.026;2023-08-06T09:31:40;16.20;99.90
15288;DHT22;7745;48.708;9.026;2023-08-06T09:34:11;16.20;99.90
15288;DHT22;7745;48.708;9.026;2023-08-06T09:36:40;16.10;99.90
15288;DHT22;7745;48.708;9.026;2023-08-06T09:39:14;16.30;99.90
15288;DHT22;7745;48.708;9.026;2023-08-06T09:41:41;16.10;99.90
15288;DHT22;7745;48.708;9.026;2023-08-06T09:44:19;16.00;99.90
15288;DHT22;7745;48.708;9.026;2023-08-06T09:46:47;16.00;99.90
15288;DHT22;7745;48.708;9.026;2023-08-06T09:49:14;16.00;99.90
15288;DHT22;7745;48.708;9.026;2023-08-06T09:51:41;16.00;99.90
15288;DHT22;7745;48.708;9.026;2023-08-06T09:54:13;16.00;99.90
15288;DHT22;7745;48.708;9.026;2023-08-06T09:56:42;16.00;99.90
15288;DHT22;7745;48.708;9.026;2023-08-06T09:59:09;15.90;99.90
15288;DHT22;7745;48.708;9.026;2023-08-06T10:01:37;15.80;99.90
15288;DHT22;7745;48.708;9.026;2023-08-06T10:04:05;15.60;99.90
15288;DHT22;7745;48.708;9.026;2023-08-06T10:06:34;15.50;99.90
15288;DHT22;7745;48.708;9.026;2023-08-06T10:09:01;15.50;99.90
15288;DHT22;7745;48.708;9.026;2023-08-06T10:11:30;15.50;99.90
15288;DHT22;7745;48.708;9.026;2023-08-06T10:14:02;15.50;99.90
15288;DHT22;7745;48.708;9.026;2023-08-06T10:16:31;15.50;99.90
15288;DHT22;7745;48.708;9.026;2023-08-06T10:18:59;15.50;99.90
15288;DHT22;7745;48.708;9.026;2023-08-06T10:21:26;15.50;99.90
15288;DHT22;7745;48.708;9.026;2023-08-06T10:23:55;15.40;99.90
15288;DHT22;7745;48.708;9.026;2023-08-06T10:26:25;15.30;99.90
15288;DHT22;7745;48.708;9.026;2023-08-06T10:28:54;15.30;99.90
15288;DHT22;7745;48.708;9.026;2023-08-06T10:31:53;15.30;99.90
15288;DHT22;7745;48.708;9.026;2023-08-06T10:34:20;15.20;99.90
15288;DHT22;7745;48.708;9.026;2023-08-06T10:36:47;15.20;99.90
15288;DHT22;7745;48.708;9.026;2023-08-06T10:39:14;15.20;99.90
15288;DHT22;7745;48.708;9.026;2023-08-06T10:41:42;15.20;99.90
15288;DHT22;7745;48.708;9.026;2023-08-06T10:44:11;15.30;99.90
15288;DHT22;7745;48.708;9.026;2023-08-06T10:46:38;15.30;99.90
15288;DHT22;7745;48.708;9.026;2023-08-06T10:49:05;15.40;99.90
15288;DHT22;7745;48.708;9.026;2023-08-06T10:51:33;15.60;99.90
15288;DHT22;7745;48.708;9.026;2023-08-06T10:53:59;15.40;99.90
15288;DHT22;7745;48.708;9.026;2023-08-06T10:56:26;15.60;99.90
15288;DHT22;7745;48.708;9.026;2023-08-06T10:58:55;15.40;99.90
15288;DHT22;7745;48.708;9.026;2023-08-06T11:01:24;15.50;99.90
15288;DHT22;7745;48.708;9.026;2023-08-06T11:03:51;15.40;99.90
15288;DHT22;7745;48.708;9.026;2023-08-06T11:06:19;15.40;99.90
15288;DHT22;7745;48.708;9.026;2023-08-06T11:08:48;15.40;99.90
15288;DHT22;7745;48.708;9.026;2023-08-06T11:11:16;15.30;99.90
15288;DHT22;7745;48.708;9.026;2023-08-06T11:13:43;15.30;99.90
15288;DHT22;7745;48.708;9.026;2023-08-06T11:16:12;15.30;99.90
15288;DHT22;7745;48.708;9.026;2023-08-06T11:18:41;15.40;99.90
15288;DHT22;7745;48.708;9.026;2023-08-06T11:21:08;15.50;99.90
15288;DHT22;7745;48.708;9.026;2023-08-06T11:23:35;15.40;99.90
15288;DHT22;7745;48.708;9.026;2023-08-06T11:26:02;15.50;99.90
15288;DHT22;7745;48.708;9.026;2023-08-06T11:28:29;15.50;99.90
15288;DHT22;7745;48.708;9.026;2023-08-06T11:30:56;15.50;99.90
15288;DHT22;7745;48.708;9.026;2023-08-06T11:33:27;15.50;99.90
15288;DHT22;7745;48.708;9.026;2023-08-06T11:35:57;15.50;99.90
15288;DHT22;7745;48.708;9.026;2023-08-06T11:38:25;15.50;99.90
15288;DHT22;7745;48.708;9.026;2023-08-06T11:40:51;15.50;99.90
15288;DHT22;7745;48.708;9.026;2023-08-06T11:43:19;15.60;99.90
15288;DHT22;7745;48.708;9.026;2023-08-06T11:45:46;15.40;99.90
15288;DHT22;7745;48.708;9.026;2023-08-06T11:48:13;15.40;99.90
15288;DHT22;7745;48.708;9.026;2023-08-06T11:50:40;15.30;99.90
15288;DHT22;7745;48.708;9.026;2023-08-06T11:53:12;15.20;99.90
15288;DHT22;7745;48.708;9.026;2023-08-06T11:55:39;15.20;99.90
15288;DHT22;7745;48.708;9.026;2023-08-06T11:58:06;15.20;99.90
15288;DHT22;7745;48.708;9.026;2023-08-06T12:00:33;15.30;99.90
15288;DHT22;7745;48.708;9.026;2023-08-06T12:03:00;15.30;99.90
15288;DHT22;7745;48.708;9.026;2023-08-06T12:05:31;15.40;99.90
15288;DHT22;7745;48.708;9.026;2023-08-06T12:08:00;15.50;99.90
15288;DHT22;7745;48.708;9.026;2023-08-06T12:10:30;15.60;99.90
15288;DHT22;7745;48.708;9.026;2023-08-06T12:12:57;15.60;99.90
15288;DHT22;7745;48.708;9.026;2023-08-06T12:15:24;15.60;99.90
15288;DHT22;7745;48.708;9.026;2023-08-06T12:17:51;15.50;99.90
15288;DHT22;7745;48.708;9.026;2023-08-06T12:20:17;15.40;99.90
15288;DHT22;7745;48.708;9.026;2023-08-06T12:22:44;15.20;99.90
15288;DHT22;7745;48.708;9.026;2023-08-06T12:25:12;15.20;99.90
15288;DHT22;7745;48.708;9.026;2023-08-06T12:27:41;15.20;99.90
15288;DHT22;7745;48.708;9.026;2023-08-06T12:30:09;15.20;99.90
15288;DHT22;7745;48.708;9.026;2023-08-06T12:32:36;15.20;99.90
15288;DHT22;7745;48.708;9.026;2023-08-06T12:35:03;15.30;99.90
15288;DHT22;7745;48.708;9.026;2023-08-06T12:37:32;15.50;99.90
15288;DHT22;7745;48.708;9.026;2023-08-06T12:39:59;15.60;99.90
15288;DHT22;7745;48.708;9.026;2023-08-06T12:42:26;15.80;99.90
15288;DHT22;7745;48.708;9.026;2023-08-06T12:44:54;15.40;99.90
15288;DHT22;7745;48.708;9.026;2023-08-06T12:47:21;15.30;99.90
15288;DHT22;7745;48.708;9.026;2023-08-06T12:49:48;15.30;99.90
15288;DHT22;7745;48.708;9.026;2023-08-06T12:52:15;15.40;99.90
15288;DHT22;7745;48.708;9.026;2023-08-06T12:54:43;15.60;99.90
15288;DHT22;7745;48.708;9.026;2023-08-06T12:57:11;15.70;99.90
15288;DHT22;7745;48.708;9.026;2023-08-06T12:59:38;15.70;99.90
15288;DHT22;7745;48.708;9.026;2023-08-06T13:02:07;15.80;99.90
15288;DHT22;7745;48.708;9.026;2023-08-06T13:04:33;15.80;99.90
15288;DHT22;7745;48.708;9.026;2023-08-06T13:07:00;15.80;99.90
15288;DHT22;7745;48.708;9.026;2023-08-06T13:09:27;15.90;99.90
15288;DHT22;7745;48.708;9.026;2023-08-06T13:11:55;16.10;99.90
15288;DHT22;7745;48.708;9.026;2023-08-06T13:14:21;16.10;99.90
15288;DHT22;7745;48.708;9.026;2023-08-06T13:16:48;16.20;99.90
15288;DHT22;7745;48.708;9.026;2023-08-06T13:19:16;16.50;99.90
15288;DHT22;7745;48.708;9.026;2023-08-06T13:22:02;16.60;99.90
15288;DHT22;7745;48.708;9.026;2023-08-06T13:24:32;16.60;99.90
15288;DHT22;7745;48.708;9.026;2023-08-06T13:26:58;16.70;99.90
15288;DHT22;7745;48.708;9.026;2023-08-06T13:29:26;16.60;99.90
15288;DHT22;7745;48.708;9.026;2023-08-06T13:31:53;16.50;99.90
15288;DHT22;7745;48.708;9.026;2023-08-06T13:34:21;16.40;99.90
15288;DHT22;7745;48.708;9.026;2023-08-06T13:36:48;16.20;99.90
15288;DHT22;7745;48.708;9.026;2023-08-06T13:39:15;16.10;99.90
15288;DHT22;7745;48.708;9.026;2023-08-06T13:41:42;15.90;99.90
15288;DHT22;7745;48.708;9.026;2023-08-06T13:44:09;15.90;99.90
15288;DHT22;7745;48.708;9.026;2023-08-06T13:46:39;15.80;99.90
15288;DHT22;7745;48.708;9.026;2023-08-06T13:49:06;15.90;99.90
15288;DHT22;7745;48.708;9.026;2023-08-06T13:51:34;15.90;99.90
15288;DHT22;7745;48.708;9.026;2023-08-06T13:54:01;16.00;99.90
15288;DHT22;7745;48.708;9.026;2023-08-06T13:56:28;16.10;99.90
15288;DHT22;7745;48.708;9.026;2023-08-06T13:58:55;16.10;99.90
15288;DHT22;7745;48.708;9.026;2023-08-06T14:01:22;16.20;99.90
15288;DHT22;7745;48.708;9.026;2023-08-06T14:03:48;16.30;99.90
15288;DHT22;7745;48.708;9.026;2023-08-06T14:06:15;16.30;99.90
15288;DHT22;7745;48.708;9.026;2023-08-06T14:08:43;16.70;99.90
15288;DHT22;7745;48.708;9.026;2023-08-06T14:11:10;16.50;99.90
15288;DHT22;7745;48.708;9.026;2023-08-06T14:13:37;16.50;99.90
15288;DHT22;7745;48.708;9.026;2023-08-06T14:16:03;16.60;99.90
15288;DHT22;7745;48.708;9.026;2023-08-06T14:18:30;16.60;99.90
15288;DHT22;7745;48.708;9.026;2023-08-06T14:20:57;16.60;99.90
15288;DHT22;7745;48.708;9.026;2023-08-06T14:23:24;16.50;99.90
15288;DHT22;7745;48.708;9.026;2023-08-06T14:25:52;16.40;99.90
15288;DHT22;7745;48.708;9.026;2023-08-06T14:28:18;16.20;99.90
15288;DHT22;7745;48.708;9.026;2023-08-06T14:30:45;15.90;99.90
15288;DHT22;7745;48.708;9.026;2023-08-06T14:33:12;15.70;99.90
15288;DHT22;7745;48.708;9.026;2023-08-06T14:35:39;15.60;99.90
15288;DHT22;7745;48.708;9.026;2023-08-06T14:38:06;15.50;99.90
15288;DHT22;7745;48.708;9.026;2023-08-06T14:40:33;15.40;99.90
15288;DHT22;7745;48.708;9.026;2023-08-06T14:43:05;15.30;99.90
15288;DHT22;7745;48.708;9.026;2023-08-06T14:45:32;15.30;99.90
15288;DHT22;7745;48.708;9.026;2023-08-06T14:47:59;15.50;99.90
15288;DHT22;7745;48.708;9.026;2023-08-06T14:50:25;15.70;99.90
15288;DHT22;7745;48.708;9.026;2023-08-06T14:52:52;15.80;99.90
15288;DHT22;7745;48.708;9.026;2023-08-06T14:55:23;15.80;99.90
15288;DHT22;7745;48.708;9.026;2023-08-06T14:57:50;15.70;99.90
15288;DHT22;7745;48.708;9.026;2023-08-06T15:00:19;15.60;99.90
15288;DHT22;7745;48.708;9.026;2023-08-06T15:02:46;15.60;99.90
15288;DHT22;7745;48.708;9.026;2023-08-06T15:05:13;15.60;99.90
15288;DHT22;7745;48.708;9.026;2023-08-06T15:07:40;15.60;99.90
15288;DHT22;7745;48.708;9.026;2023-08-06T15:10:07;15.60;99.90
15288;DHT22;7745;48.708;9.026;2023-08-06T15:12:34;15.70;99.90
15288;DHT22;7745;48.708;9.026;2023-08-06T15:15:02;15.80;99.90
15288;DHT22;7745;48.708;9.026;2023-08-06T15:17:30;15.90;99.90
15288;DHT22;7745;48.708;9.026;2023-08-06T15:19:57;16.10;99.90
15288;DHT22;7745;48.708;9.026;2023-08-06T15:22:25;16.00;99.90
15288;DHT22;7745;48.708;9.026;2023-08-06T15:24:52;16.20;99.90
15288;DHT22;7745;48.708;9.026;2023-08-06T15:27:19;16.50;99.90
15288;DHT22;7745;48.708;9.026;2023-08-06T15:29:45;16.50;99.90
15288;DHT22;7745;48.708;9.026;2023-08-06T15:32:12;16.50;99.90
15288;DHT22;7745;48.708;9.026;2023-08-06T15:34:40;16.40;99.90
15288;DHT22;7745;48.708;9.026;2023-08-06T15:37:07;16.40;99.90
15288;DHT22;7745;48.708;9.026;2023-08-06T15:39:34;16.40;99.90
15288;DHT22;7745;48.708;9.026;2023-08-06T15:42:01;16.60;99.90
15288;DHT22;7745;48.708;9.026;2023-08-06T15:44:30;16.60;99.90
15288;DHT22;7745;48.708;9.026;2023-08-06T15:46:57;16.80;99.90